sensor_id;sensor_type;location;lat;lon;timestamp;P1;durP1;ratioP1;P2;durP2;ratioP2
42724;SDS011;28369;44.046;23.014;2022-08-24T00:01:04;9.43;;;6.25;;
42724;SDS011;28369;44.046;23.014;2022-08-24T00:03:33;9.23;;;6.15;;
42724;SDS011;28369;44.046;23.014;2022-08-24T00:05:59;12.32;;;6.22;;
42724;SDS011;28369;44.046;23.014;2022-08-24T00:08:25;8.80;;;5.70;;
42724;SDS011;28369;44.046;23.014;2022-08-24T00:10:51;6.80;;;6.10;;
42724;SDS011;28369;44.046;23.014;2022-08-24T00:13:17;10.63;;;6.80;;
42724;SDS011;28369;44.046;23.014;2022-08-24T00:15:43;8.68;;;6.07;;
42724;SDS011;28369;44.046;23.014;2022-08-24T00:18:09;11.32;;;6.18;;
42724;SDS011;28369;44.046;23.014;2022-08-24T00:20:35;12.40;;;6.50;;
42724;SDS011;28369;44.046;23.014;2022-08-24T00:23:01;6.45;;;5.82;;
42724;SDS011;28369;44.046;23.014;2022-08-24T00:25:27;8.30;;;5.70;;
42724;SDS011;28369;44.046;23.014;2022-08-24T00:27:52;8.02;;;6.38;;
42724;SDS011;28369;44.046;23.014;2022-08-24T00:30:18;9.80;;;6.47;;
42724;SDS011;28369;44.046;23.014;2022-08-24T00:32:45;11.15;;;6.32;;
42724;SDS011;28369;44.046;23.014;2022-08-24T00:35:13;11.02;;;6.72;;
42724;SDS011;28369;44.046;23.014;2022-08-24T00:37:42;9.05;;;5.70;;
42724;SDS011;28369;44.046;23.014;2022-08-24T00:40:10;8.65;;;6.60;;
42724;SDS011;28369;44.046;23.014;2022-08-24T00:42:40;8.70;;;5.78;;
42724;SDS011;28369;44.046;23.014;2022-08-24T00:45:07;7.88;;;6.32;;
42724;SDS011;28369;44.046;23.014;2022-08-24T00:47:39;10.93;;;6.63;;
42724;SDS011;28369;44.046;23.014;2022-08-24T00:50:13;9.15;;;7.80;;
42724;SDS011;28369;44.046;23.014;2022-08-24T00:53:08;11.13;;;7.05;;
42724;SDS011;28369;44.046;23.014;2022-08-24T00:55:57;9.38;;;7.43;;
42724;SDS011;28369;44.046;23.014;2022-08-24T00:58:31;8.45;;;7.53;;
42724;SDS011;28369;44.046;23.014;2022-08-24T01:01:01;8.80;;;7.18;;
42724;SDS011;28369;44.046;23.014;2022-08-24T01:03:28;9.65;;;6.90;;
42724;SDS011;28369;44.046;23.014;2022-08-24T01:05:56;12.10;;;6.97;;
42724;SDS011;28369;44.046;23.014;2022-08-24T01:08:22;10.45;;;6.90;;
42724;SDS011;28369;44.046;23.014;2022-08-24T01:10:49;11.23;;;7.10;;
42724;SDS011;28369;44.046;23.014;2022-08-24T01:13:19;11.18;;;6.82;;
42724;SDS011;28369;44.046;23.014;2022-08-24T01:15:47;10.88;;;6.85;;
42724;SDS011;28369;44.046;23.014;2022-08-24T01:18:16;7.07;;;6.20;;
42724;SDS011;28369;44.046;23.014;2022-08-24T01:21:09;10.80;;;6.82;;
42724;SDS011;28369;44.046;23.014;2022-08-24T01:23:39;8.93;;;6.22;;
42724;SDS011;28369;44.046;23.014;2022-08-24T01:26:10;8.55;;;5.97;;
42724;SDS011;28369;44.046;23.014;2022-08-24T01:28:38;7.78;;;6.97;;
42724;SDS011;28369;44.046;23.014;2022-08-24T01:31:05;8.38;;;6.43;;
42724;SDS011;28369;44.046;23.014;2022-08-24T01:33:31;13.38;;;6.80;;
42724;SDS011;28369;44.046;23.014;2022-08-24T01:36:11;8.20;;;6.97;;
42724;SDS011;28369;44.046;23.014;2022-08-24T01:38:42;7.53;;;6.70;;
42724;SDS011;28369;44.046;23.014;2022-08-24T01:41:09;11.23;;;7.32;;
42724;SDS011;28369;44.046;23.014;2022-08-24T01:43:35;13.60;;;7.95;;
42724;SDS011;28369;44.046;23.014;2022-08-24T01:46:00;14.73;;;8.30;;
42724;SDS011;28369;44.046;23.014;2022-08-24T01:48:26;11.55;;;9.30;;
42724;SDS011;28369;44.046;23.014;2022-08-24T01:50:51;13.85;;;8.82;;
42724;SDS011;28369;44.046;23.014;2022-08-24T01:53:17;15.98;;;8.63;;
42724;SDS011;28369;44.046;23.014;2022-08-24T01:55:43;12.07;;;8.30;;
42724;SDS011;28369;44.046;23.014;2022-08-24T01:58:09;12.43;;;8.57;;
42724;SDS011;28369;44.046;23.014;2022-08-24T02:00:35;11.30;;;8.18;;
42724;SDS011;28369;44.046;23.014;2022-08-24T02:03:01;12.82;;;8.15;;
42724;SDS011;28369;44.046;23.014;2022-08-24T02:05:27;11.85;;;8.00;;
42724;SDS011;28369;44.046;23.014;2022-08-24T02:07:53;16.80;;;8.40;;
42724;SDS011;28369;44.046;23.014;2022-08-24T02:10:20;15.82;;;8.27;;
42724;SDS011;28369;44.046;23.014;2022-08-24T02:12:46;15.82;;;8.00;;
42724;SDS011;28369;44.046;23.014;2022-08-24T02:15:23;13.52;;;7.70;;
42724;SDS011;28369;44.046;23.014;2022-08-24T02:17:53;11.23;;;7.38;;
42724;SDS011;28369;44.046;23.014;2022-08-24T02:20:19;8.77;;;7.13;;
42724;SDS011;28369;44.046;23.014;2022-08-24T02:22:46;10.18;;;7.78;;
42724;SDS011;28369;44.046;23.014;2022-08-24T02:25:14;11.15;;;7.40;;
42724;SDS011;28369;44.046;23.014;2022-08-24T02:27:40;12.25;;;8.30;;
42724;SDS011;28369;44.046;23.014;2022-08-24T02:30:05;13.75;;;7.20;;
42724;SDS011;28369;44.046;23.014;2022-08-24T02:32:32;10.70;;;6.63;;
42724;SDS011;28369;44.046;23.014;2022-08-24T02:34:57;11.60;;;7.10;;
42724;SDS011;28369;44.046;23.014;2022-08-24T02:37:23;11.05;;;6.75;;
42724;SDS011;28369;44.046;23.014;2022-08-24T02:39:48;10.45;;;7.05;;
42724;SDS011;28369;44.046;23.014;2022-08-24T02:42:14;11.10;;;6.95;;
42724;SDS011;28369;44.046;23.014;2022-08-24T02:44:40;13.02;;;8.18;;
42724;SDS011;28369;44.046;23.014;2022-08-24T02:47:05;9.48;;;7.00;;
42724;SDS011;28369;44.046;23.014;2022-08-24T02:49:31;11.35;;;7.65;;
42724;SDS011;28369;44.046;23.014;2022-08-24T02:51:57;16.50;;;7.82;;
42724;SDS011;28369;44.046;23.014;2022-08-24T02:54:22;12.40;;;7.32;;
42724;SDS011;28369;44.046;23.014;2022-08-24T02:56:48;12.95;;;6.65;;
42724;SDS011;28369;44.046;23.014;2022-08-24T02:59:14;8.73;;;6.97;;
42724;SDS011;28369;44.046;23.014;2022-08-24T03:01:40;10.50;;;7.18;;
42724;SDS011;28369;44.046;23.014;2022-08-24T03:04:06;10.90;;;6.63;;
42724;SDS011;28369;44.046;23.014;2022-08-24T03:06:32;10.85;;;7.22;;
42724;SDS011;28369;44.046;23.014;2022-08-24T03:08:58;10.40;;;7.63;;
42724;SDS011;28369;44.046;23.014;2022-08-24T03:11:23;11.80;;;7.38;;
42724;SDS011;28369;44.046;23.014;2022-08-24T03:13:49;10.85;;;7.35;;
42724;SDS011;28369;44.046;23.014;2022-08-24T03:16:15;12.20;;;7.68;;
42724;SDS011;28369;44.046;23.014;2022-08-24T03:18:40;8.70;;;7.50;;
42724;SDS011;28369;44.046;23.014;2022-08-24T03:21:06;10.13;;;6.90;;
42724;SDS011;28369;44.046;23.014;2022-08-24T03:23:32;8.02;;;7.32;;
42724;SDS011;28369;44.046;23.014;2022-08-24T03:25:58;8.05;;;7.25;;
42724;SDS011;28369;44.046;23.014;2022-08-24T03:28:25;11.63;;;7.00;;
42724;SDS011;28369;44.046;23.014;2022-08-24T03:30:51;10.45;;;7.40;;
42724;SDS011;28369;44.046;23.014;2022-08-24T03:33:17;9.40;;;7.35;;
42724;SDS011;28369;44.046;23.014;2022-08-24T03:35:43;8.98;;;7.25;;
42724;SDS011;28369;44.046;23.014;2022-08-24T03:38:09;11.20;;;7.63;;
42724;SDS011;28369;44.046;23.014;2022-08-24T03:40:36;11.38;;;7.50;;
42724;SDS011;28369;44.046;23.014;2022-08-24T03:43:02;11.23;;;6.40;;
42724;SDS011;28369;44.046;23.014;2022-08-24T03:45:27;13.48;;;7.43;;
42724;SDS011;28369;44.046;23.014;2022-08-24T03:47:53;10.73;;;6.72;;
42724;SDS011;28369;44.046;23.014;2022-08-24T03:50:19;16.27;;;7.90;;
42724;SDS011;28369;44.046;23.014;2022-08-24T03:52:45;11.07;;;6.55;;
42724;SDS011;28369;44.046;23.014;2022-08-24T03:55:11;10.88;;;6.80;;
42724;SDS011;28369;44.046;23.014;2022-08-24T03:57:37;10.05;;;6.22;;
42724;SDS011;28369;44.046;23.014;2022-08-24T04:00:05;14.75;;;6.47;;
42724;SDS011;28369;44.046;23.014;2022-08-24T04:02:33;10.93;;;6.30;;
42724;SDS011;28369;44.046;23.014;2022-08-24T04:04:59;8.23;;;6.50;;
42724;SDS011;28369;44.046;23.014;2022-08-24T04:07:25;9.43;;;6.03;;
42724;SDS011;28369;44.046;23.014;2022-08-24T04:09:50;10.07;;;6.55;;
42724;SDS011;28369;44.046;23.014;2022-08-24T04:12:15;6.53;;;5.93;;
42724;SDS011;28369;44.046;23.014;2022-08-24T04:14:41;8.63;;;6.55;;
42724;SDS011;28369;44.046;23.014;2022-08-24T04:17:07;10.57;;;6.40;;
42724;SDS011;28369;44.046;23.014;2022-08-24T04:19:33;11.45;;;6.32;;
42724;SDS011;28369;44.046;23.014;2022-08-24T04:21:59;18.40;;;6.55;;
42724;SDS011;28369;44.046;23.014;2022-08-24T04:24:25;12.13;;;6.75;;
42724;SDS011;28369;44.046;23.014;2022-08-24T04:26:51;12.60;;;6.70;;
42724;SDS011;28369;44.046;23.014;2022-08-24T04:29:17;11.55;;;7.88;;
42724;SDS011;28369;44.046;23.014;2022-08-24T04:31:44;12.45;;;8.70;;
42724;SDS011;28369;44.046;23.014;2022-08-24T04:34:11;16.67;;;8.90;;
42724;SDS011;28369;44.046;23.014;2022-08-24T04:36:41;11.70;;;9.05;;
42724;SDS011;28369;44.046;23.014;2022-08-24T04:39:08;11.23;;;9.25;;
42724;SDS011;28369;44.046;23.014;2022-08-24T04:41:34;14.95;;;8.85;;
42724;SDS011;28369;44.046;23.014;2022-08-24T04:44:01;16.90;;;9.02;;
42724;SDS011;28369;44.046;23.014;2022-08-24T04:46:27;12.07;;;8.32;;
42724;SDS011;28369;44.046;23.014;2022-08-24T04:48:53;12.60;;;8.00;;
42724;SDS011;28369;44.046;23.014;2022-08-24T04:51:19;16.58;;;9.07;;
42724;SDS011;28369;44.046;23.014;2022-08-24T04:53:46;12.68;;;10.63;;
42724;SDS011;28369;44.046;23.014;2022-08-24T04:56:13;13.75;;;10.05;;
42724;SDS011;28369;44.046;23.014;2022-08-24T04:58:41;13.00;;;9.18;;
42724;SDS011;28369;44.046;23.014;2022-08-24T05:01:08;13.68;;;10.23;;
42724;SDS011;28369;44.046;23.014;2022-08-24T05:03:37;22.48;;;12.43;;
42724;SDS011;28369;44.046;23.014;2022-08-24T05:06:03;18.27;;;11.95;;
42724;SDS011;28369;44.046;23.014;2022-08-24T05:08:29;18.13;;;11.23;;
42724;SDS011;28369;44.046;23.014;2022-08-24T05:10:56;11.48;;;10.27;;
42724;SDS011;28369;44.046;23.014;2022-08-24T05:13:21;14.32;;;11.55;;
42724;SDS011;28369;44.046;23.014;2022-08-24T05:15:47;18.80;;;11.65;;
42724;SDS011;28369;44.046;23.014;2022-08-24T05:18:14;16.58;;;12.38;;
42724;SDS011;28369;44.046;23.014;2022-08-24T05:20:44;14.13;;;11.68;;
42724;SDS011;28369;44.046;23.014;2022-08-24T05:23:11;13.30;;;10.95;;
42724;SDS011;28369;44.046;23.014;2022-08-24T05:25:37;20.38;;;11.70;;
42724;SDS011;28369;44.046;23.014;2022-08-24T05:28:04;19.83;;;11.50;;
42724;SDS011;28369;44.046;23.014;2022-08-24T05:30:29;20.65;;;12.35;;
42724;SDS011;28369;44.046;23.014;2022-08-24T05:32:55;18.25;;;12.60;;
42724;SDS011;28369;44.046;23.014;2022-08-24T05:35:20;22.05;;;11.85;;
42724;SDS011;28369;44.046;23.014;2022-08-24T05:37:46;16.42;;;11.38;;
42724;SDS011;28369;44.046;23.014;2022-08-24T05:40:13;22.45;;;11.82;;
42724;SDS011;28369;44.046;23.014;2022-08-24T05:42:40;17.45;;;10.80;;
42724;SDS011;28369;44.046;23.014;2022-08-24T05:45:05;15.90;;;10.27;;
42724;SDS011;28369;44.046;23.014;2022-08-24T05:47:32;18.10;;;12.15;;
42724;SDS011;28369;44.046;23.014;2022-08-24T05:50:01;13.15;;;9.75;;
42724;SDS011;28369;44.046;23.014;2022-08-24T05:52:27;15.32;;;10.43;;
42724;SDS011;28369;44.046;23.014;2022-08-24T05:54:54;15.10;;;10.80;;
42724;SDS011;28369;44.046;23.014;2022-08-24T05:57:22;13.43;;;10.88;;
42724;SDS011;28369;44.046;23.014;2022-08-24T05:59:49;11.60;;;10.40;;
42724;SDS011;28369;44.046;23.014;2022-08-24T06:02:15;12.93;;;9.52;;
42724;SDS011;28369;44.046;23.014;2022-08-24T06:04:42;13.55;;;9.20;;
42724;SDS011;28369;44.046;23.014;2022-08-24T06:07:09;12.93;;;10.70;;
42724;SDS011;28369;44.046;23.014;2022-08-24T06:09:36;11.60;;;10.40;;
42724;SDS011;28369;44.046;23.014;2022-08-24T06:12:02;12.65;;;10.30;;
42724;SDS011;28369;44.046;23.014;2022-08-24T06:14:28;12.18;;;9.25;;
42724;SDS011;28369;44.046;23.014;2022-08-24T06:16:54;14.20;;;9.90;;
42724;SDS011;28369;44.046;23.014;2022-08-24T06:19:20;11.63;;;10.50;;
42724;SDS011;28369;44.046;23.014;2022-08-24T06:21:47;15.68;;;11.13;;
42724;SDS011;28369;44.046;23.014;2022-08-24T06:24:15;12.27;;;10.90;;
42724;SDS011;28369;44.046;23.014;2022-08-24T06:26:43;12.88;;;11.50;;
42724;SDS011;28369;44.046;23.014;2022-08-24T06:29:28;13.02;;;10.73;;
42724;SDS011;28369;44.046;23.014;2022-08-24T06:31:54;11.70;;;10.13;;
42724;SDS011;28369;44.046;23.014;2022-08-24T06:34:20;11.68;;;10.48;;
42724;SDS011;28369;44.046;23.014;2022-08-24T06:36:47;13.73;;;11.68;;
42724;SDS011;28369;44.046;23.014;2022-08-24T06:39:12;12.02;;;10.80;;
42724;SDS011;28369;44.046;23.014;2022-08-24T06:41:38;15.50;;;11.07;;
42724;SDS011;28369;44.046;23.014;2022-08-24T06:44:05;15.50;;;12.48;;
42724;SDS011;28369;44.046;23.014;2022-08-24T06:46:32;14.82;;;11.82;;
42724;SDS011;28369;44.046;23.014;2022-08-24T06:48:57;15.20;;;11.90;;
42724;SDS011;28369;44.046;23.014;2022-08-24T06:51:24;15.38;;;12.35;;
42724;SDS011;28369;44.046;23.014;2022-08-24T06:53:50;19.05;;;12.45;;
42724;SDS011;28369;44.046;23.014;2022-08-24T06:56:15;13.93;;;11.95;;
42724;SDS011;28369;44.046;23.014;2022-08-24T06:58:42;13.15;;;11.23;;
42724;SDS011;28369;44.046;23.014;2022-08-24T07:01:09;16.35;;;11.48;;
42724;SDS011;28369;44.046;23.014;2022-08-24T07:03:39;12.45;;;11.18;;
42724;SDS011;28369;44.046;23.014;2022-08-24T07:06:06;12.13;;;10.93;;
42724;SDS011;28369;44.046;23.014;2022-08-24T07:08:32;15.13;;;11.13;;
42724;SDS011;28369;44.046;23.014;2022-08-24T07:10:58;12.73;;;10.30;;
42724;SDS011;28369;44.046;23.014;2022-08-24T07:13:24;17.20;;;10.50;;
42724;SDS011;28369;44.046;23.014;2022-08-24T07:15:50;11.85;;;10.55;;
42724;SDS011;28369;44.046;23.014;2022-08-24T07:18:17;12.98;;;10.65;;
42724;SDS011;28369;44.046;23.014;2022-08-24T07:20:44;11.70;;;10.23;;
42724;SDS011;28369;44.046;23.014;2022-08-24T07:23:11;16.55;;;11.70;;
42724;SDS011;28369;44.046;23.014;2022-08-24T07:29:02;11.45;;;9.60;;
42724;SDS011;28369;44.046;23.014;2022-08-24T07:31:30;11.70;;;9.10;;
42724;SDS011;28369;44.046;23.014;2022-08-24T07:33:56;13.02;;;9.60;;
42724;SDS011;28369;44.046;23.014;2022-08-24T07:36:22;10.55;;;9.45;;
42724;SDS011;28369;44.046;23.014;2022-08-24T07:38:48;10.38;;;9.38;;
42724;SDS011;28369;44.046;23.014;2022-08-24T07:41:16;9.75;;;8.82;;
42724;SDS011;28369;44.046;23.014;2022-08-24T07:43:44;13.00;;;9.30;;
42724;SDS011;28369;44.046;23.014;2022-08-24T07:46:10;11.18;;;9.00;;
42724;SDS011;28369;44.046;23.014;2022-08-24T07:48:37;9.50;;;8.30;;
42724;SDS011;28369;44.046;23.014;2022-08-24T07:51:10;12.75;;;10.07;;
42724;SDS011;28369;44.046;23.014;2022-08-24T07:53:40;10.63;;;9.20;;
42724;SDS011;28369;44.046;23.014;2022-08-24T07:56:06;10.57;;;8.23;;
42724;SDS011;28369;44.046;23.014;2022-08-24T07:58:33;12.18;;;7.57;;
42724;SDS011;28369;44.046;23.014;2022-08-24T08:00:59;7.45;;;6.55;;
42724;SDS011;28369;44.046;23.014;2022-08-24T08:03:25;7.53;;;6.40;;
42724;SDS011;28369;44.046;23.014;2022-08-24T08:05:56;9.38;;;7.10;;
42724;SDS011;28369;44.046;23.014;2022-08-24T08:08:22;7.72;;;7.07;;
42724;SDS011;28369;44.046;23.014;2022-08-24T08:10:49;10.50;;;8.10;;
42724;SDS011;28369;44.046;23.014;2022-08-24T08:13:14;9.45;;;8.23;;
42724;SDS011;28369;44.046;23.014;2022-08-24T08:15:40;15.50;;;8.73;;
42724;SDS011;28369;44.046;23.014;2022-08-24T08:18:06;14.85;;;8.00;;
42724;SDS011;28369;44.046;23.014;2022-08-24T08:20:32;10.23;;;6.75;;
42724;SDS011;28369;44.046;23.014;2022-08-24T08:22:59;9.27;;;6.38;;
42724;SDS011;28369;44.046;23.014;2022-08-24T08:25:50;6.82;;;6.30;;
42724;SDS011;28369;44.046;23.014;2022-08-24T08:28:17;8.35;;;7.55;;
42724;SDS011;28369;44.046;23.014;2022-08-24T08:30:43;7.65;;;6.85;;
42724;SDS011;28369;44.046;23.014;2022-08-24T08:33:10;8.05;;;5.10;;
42724;SDS011;28369;44.046;23.014;2022-08-24T08:35:36;6.13;;;5.53;;
42724;SDS011;28369;44.046;23.014;2022-08-24T08:38:02;6.78;;;5.50;;
42724;SDS011;28369;44.046;23.014;2022-08-24T08:43:33;7.85;;;6.35;;
42724;SDS011;28369;44.046;23.014;2022-08-24T08:52:21;6.35;;;5.75;;
42724;SDS011;28369;44.046;23.014;2022-08-24T08:55:22;8.00;;;6.97;;
42724;SDS011;28369;44.046;23.014;2022-08-24T09:35:02;7.75;;;6.72;;
42724;SDS011;28369;44.046;23.014;2022-08-24T09:48:43;9.50;;;6.80;;
42724;SDS011;28369;44.046;23.014;2022-08-24T09:57:20;7.88;;;7.18;;
42724;SDS011;28369;44.046;23.014;2022-08-24T10:11:21;7.40;;;6.70;;
42724;SDS011;28369;44.046;23.014;2022-08-24T10:14:02;8.20;;;7.20;;
42724;SDS011;28369;44.046;23.014;2022-08-24T10:17:06;22.10;;;7.10;;
42724;SDS011;28369;44.046;23.014;2022-08-24T10:47:20;9.43;;;8.25;;
42724;SDS011;28369;44.046;23.014;2022-08-24T10:49:52;11.30;;;9.10;;
42724;SDS011;28369;44.046;23.014;2022-08-24T10:55:25;10.45;;;8.88;;
42724;SDS011;28369;44.046;23.014;2022-08-24T10:58:12;9.18;;;8.25;;
42724;SDS011;28369;44.046;23.014;2022-08-24T11:00:42;9.30;;;7.93;;
42724;SDS011;28369;44.046;23.014;2022-08-24T11:03:16;11.63;;;9.20;;
42724;SDS011;28369;44.046;23.014;2022-08-24T11:05:50;9.93;;;8.55;;
42724;SDS011;28369;44.046;23.014;2022-08-24T11:08:28;10.13;;;8.90;;
42724;SDS011;28369;44.046;23.014;2022-08-24T11:11:05;12.57;;;9.00;;
42724;SDS011;28369;44.046;23.014;2022-08-24T11:13:38;8.75;;;7.85;;
42724;SDS011;28369;44.046;23.014;2022-08-24T11:16:25;9.43;;;7.97;;
42724;SDS011;28369;44.046;23.014;2022-08-24T11:18:58;9.63;;;8.65;;
42724;SDS011;28369;44.046;23.014;2022-08-24T11:26:47;10.63;;;7.97;;
42724;SDS011;28369;44.046;23.014;2022-08-24T11:29:17;8.98;;;8.13;;
42724;SDS011;28369;44.046;23.014;2022-08-24T11:31:44;8.60;;;7.57;;
42724;SDS011;28369;44.046;23.014;2022-08-24T11:34:34;9.52;;;8.02;;
42724;SDS011;28369;44.046;23.014;2022-08-24T11:37:03;8.85;;;7.97;;
42724;SDS011;28369;44.046;23.014;2022-08-24T11:39:33;8.40;;;7.57;;
42724;SDS011;28369;44.046;23.014;2022-08-24T11:45:12;8.68;;;7.90;;
42724;SDS011;28369;44.046;23.014;2022-08-24T11:51:02;9.15;;;8.20;;
42724;SDS011;28369;44.046;23.014;2022-08-24T11:53:31;9.15;;;8.35;;
42724;SDS011;28369;44.046;23.014;2022-08-24T11:59:10;9.82;;;8.18;;
42724;SDS011;28369;44.046;23.014;2022-08-24T12:01:56;10.50;;;8.15;;
42724;SDS011;28369;44.046;23.014;2022-08-24T12:04:34;8.60;;;7.70;;
42724;SDS011;28369;44.046;23.014;2022-08-24T12:07:14;8.30;;;7.10;;
42724;SDS011;28369;44.046;23.014;2022-08-24T12:15:08;9.18;;;6.68;;
42724;SDS011;28369;44.046;23.014;2022-08-24T12:17:59;7.88;;;7.10;;
42724;SDS011;28369;44.046;23.014;2022-08-24T12:20:40;10.13;;;7.07;;
42724;SDS011;28369;44.046;23.014;2022-08-24T12:28:51;9.82;;;7.35;;
42724;SDS011;28369;44.046;23.014;2022-08-24T12:37:05;8.68;;;6.68;;
42724;SDS011;28369;44.046;23.014;2022-08-24T12:39:32;8.80;;;5.90;;
42724;SDS011;28369;44.046;23.014;2022-08-24T12:44:48;7.63;;;5.55;;
42724;SDS011;28369;44.046;23.014;2022-08-24T12:47:26;12.77;;;5.60;;
42724;SDS011;28369;44.046;23.014;2022-08-24T12:56:21;13.30;;;5.20;;
42724;SDS011;28369;44.046;23.014;2022-08-24T13:01:59;18.90;;;4.88;;
42724;SDS011;28369;44.046;23.014;2022-08-24T13:04:53;9.73;;;5.78;;
42724;SDS011;28369;44.046;23.014;2022-08-24T13:15:17;7.63;;;5.13;;
42724;SDS011;28369;44.046;23.014;2022-08-24T13:23:05;10.55;;;4.45;;
42724;SDS011;28369;44.046;23.014;2022-08-24T13:36:42;11.90;;;4.90;;
42724;SDS011;28369;44.046;23.014;2022-08-24T13:39:24;16.80;;;9.95;;
42724;SDS011;28369;44.046;23.014;2022-08-24T13:57:00;13.20;;;5.60;;
42724;SDS011;28369;44.046;23.014;2022-08-24T13:59:57;13.52;;;5.47;;
42724;SDS011;28369;44.046;23.014;2022-08-24T14:02:29;15.75;;;5.50;;
42724;SDS011;28369;44.046;23.014;2022-08-24T14:35:29;12.93;;;5.38;;
42724;SDS011;28369;44.046;23.014;2022-08-24T14:41:07;16.90;;;5.13;;
42724;SDS011;28369;44.046;23.014;2022-08-24T14:46:52;16.17;;;5.55;;
42724;SDS011;28369;44.046;23.014;2022-08-24T14:49:54;17.92;;;6.05;;
42724;SDS011;28369;44.046;23.014;2022-08-24T15:00:47;17.33;;;5.45;;
42724;SDS011;28369;44.046;23.014;2022-08-24T15:06:12;19.17;;;6.15;;
42724;SDS011;28369;44.046;23.014;2022-08-24T15:08:46;12.70;;;5.53;;
42724;SDS011;28369;44.046;23.014;2022-08-24T15:11:14;17.98;;;4.82;;
42724;SDS011;28369;44.046;23.014;2022-08-24T15:13:46;18.73;;;5.20;;
42724;SDS011;28369;44.046;23.014;2022-08-24T15:18:53;23.55;;;5.75;;
42724;SDS011;28369;44.046;23.014;2022-08-24T15:22:01;14.23;;;4.93;;
42724;SDS011;28369;44.046;23.014;2022-08-24T15:29:52;14.82;;;4.78;;
42724;SDS011;28369;44.046;23.014;2022-08-24T15:32:19;20.58;;;5.63;;
42724;SDS011;28369;44.046;23.014;2022-08-24T15:34:53;17.52;;;4.85;;
42724;SDS011;28369;44.046;23.014;2022-08-24T15:37:25;21.77;;;5.32;;
42724;SDS011;28369;44.046;23.014;2022-08-24T15:40:15;22.13;;;5.88;;
42724;SDS011;28369;44.046;23.014;2022-08-24T15:42:46;13.45;;;5.28;;
42724;SDS011;28369;44.046;23.014;2022-08-24T15:45:14;16.35;;;5.43;;
42724;SDS011;28369;44.046;23.014;2022-08-24T15:47:43;20.55;;;5.32;;
42724;SDS011;28369;44.046;23.014;2022-08-24T15:50:25;14.93;;;5.57;;
42724;SDS011;28369;44.046;23.014;2022-08-24T15:53:01;15.88;;;4.95;;
42724;SDS011;28369;44.046;23.014;2022-08-24T15:55:38;23.45;;;5.90;;
42724;SDS011;28369;44.046;23.014;2022-08-24T15:58:12;32.53;;;6.97;;
42724;SDS011;28369;44.046;23.014;2022-08-24T16:00:44;16.23;;;5.88;;
42724;SDS011;28369;44.046;23.014;2022-08-24T16:06:22;20.13;;;6.05;;
42724;SDS011;28369;44.046;23.014;2022-08-24T16:09:00;19.13;;;5.88;;
42724;SDS011;28369;44.046;23.014;2022-08-24T16:11:43;18.83;;;6.05;;
42724;SDS011;28369;44.046;23.014;2022-08-24T16:14:22;16.25;;;6.32;;
42724;SDS011;28369;44.046;23.014;2022-08-24T16:16:52;17.00;;;5.63;;
42724;SDS011;28369;44.046;23.014;2022-08-24T16:21:53;33.75;;;16.92;;
42724;SDS011;28369;44.046;23.014;2022-08-24T16:24:30;17.67;;;6.18;;
42724;SDS011;28369;44.046;23.014;2022-08-24T16:34:46;16.38;;;6.65;;
42724;SDS011;28369;44.046;23.014;2022-08-24T16:37:14;16.50;;;6.07;;
42724;SDS011;28369;44.046;23.014;2022-08-24T16:39:41;13.10;;;6.00;;
42724;SDS011;28369;44.046;23.014;2022-08-24T16:42:12;15.27;;;6.90;;
42724;SDS011;28369;44.046;23.014;2022-08-24T16:44:47;23.52;;;7.32;;
42724;SDS011;28369;44.046;23.014;2022-08-24T16:47:13;16.35;;;6.40;;
42724;SDS011;28369;44.046;23.014;2022-08-24T16:49:39;22.50;;;7.93;;
42724;SDS011;28369;44.046;23.014;2022-08-24T16:52:05;19.35;;;6.90;;
42724;SDS011;28369;44.046;23.014;2022-08-24T16:54:31;19.98;;;7.82;;
42724;SDS011;28369;44.046;23.014;2022-08-24T16:56:57;23.08;;;7.80;;
42724;SDS011;28369;44.046;23.014;2022-08-24T16:59:30;18.27;;;7.82;;
42724;SDS011;28369;44.046;23.014;2022-08-24T17:01:58;16.85;;;7.63;;
42724;SDS011;28369;44.046;23.014;2022-08-24T17:04:24;20.17;;;8.32;;
42724;SDS011;28369;44.046;23.014;2022-08-24T17:06:50;15.63;;;8.68;;
42724;SDS011;28369;44.046;23.014;2022-08-24T17:09:16;18.23;;;7.55;;
42724;SDS011;28369;44.046;23.014;2022-08-24T17:11:43;18.13;;;7.60;;
42724;SDS011;28369;44.046;23.014;2022-08-24T17:14:08;20.33;;;6.90;;
42724;SDS011;28369;44.046;23.014;2022-08-24T17:16:35;20.17;;;7.03;;
42724;SDS011;28369;44.046;23.014;2022-08-24T17:19:02;16.05;;;7.15;;
42724;SDS011;28369;44.046;23.014;2022-08-24T17:21:37;13.43;;;6.90;;
42724;SDS011;28369;44.046;23.014;2022-08-24T17:24:03;16.42;;;6.68;;
42724;SDS011;28369;44.046;23.014;2022-08-24T17:26:29;18.35;;;6.72;;
42724;SDS011;28369;44.046;23.014;2022-08-24T17:28:56;18.70;;;6.68;;
42724;SDS011;28369;44.046;23.014;2022-08-24T17:31:22;18.92;;;7.82;;
42724;SDS011;28369;44.046;23.014;2022-08-24T17:33:49;26.42;;;10.07;;
42724;SDS011;28369;44.046;23.014;2022-08-24T17:36:15;20.02;;;9.40;;
42724;SDS011;28369;44.046;23.014;2022-08-24T17:38:44;16.27;;;7.65;;
42724;SDS011;28369;44.046;23.014;2022-08-24T17:41:12;22.80;;;7.65;;
42724;SDS011;28369;44.046;23.014;2022-08-24T17:43:38;19.92;;;7.18;;
42724;SDS011;28369;44.046;23.014;2022-08-24T17:46:04;17.20;;;7.90;;
42724;SDS011;28369;44.046;23.014;2022-08-24T17:48:30;23.83;;;8.10;;
42724;SDS011;28369;44.046;23.014;2022-08-24T17:50:57;21.65;;;7.72;;
42724;SDS011;28369;44.046;23.014;2022-08-24T17:53:22;22.08;;;7.63;;
42724;SDS011;28369;44.046;23.014;2022-08-24T17:55:48;20.63;;;8.68;;
42724;SDS011;28369;44.046;23.014;2022-08-24T17:58:14;18.45;;;8.48;;
42724;SDS011;28369;44.046;23.014;2022-08-24T18:00:40;17.45;;;8.02;;
42724;SDS011;28369;44.046;23.014;2022-08-24T18:03:06;24.30;;;8.38;;
42724;SDS011;28369;44.046;23.014;2022-08-24T18:05:32;26.63;;;8.93;;
42724;SDS011;28369;44.046;23.014;2022-08-24T18:07:58;18.38;;;8.43;;
42724;SDS011;28369;44.046;23.014;2022-08-24T18:10:26;21.58;;;8.82;;
42724;SDS011;28369;44.046;23.014;2022-08-24T18:12:53;24.75;;;8.73;;
42724;SDS011;28369;44.046;23.014;2022-08-24T18:15:22;21.45;;;8.60;;
42724;SDS011;28369;44.046;23.014;2022-08-24T18:17:49;19.35;;;8.50;;
42724;SDS011;28369;44.046;23.014;2022-08-24T18:20:18;22.13;;;9.15;;
42724;SDS011;28369;44.046;23.014;2022-08-24T18:22:50;26.80;;;10.52;;
42724;SDS011;28369;44.046;23.014;2022-08-24T18:25:17;19.23;;;9.25;;
42724;SDS011;28369;44.046;23.014;2022-08-24T18:27:45;20.45;;;8.63;;
42724;SDS011;28369;44.046;23.014;2022-08-24T18:30:26;24.10;;;9.07;;
42724;SDS011;28369;44.046;23.014;2022-08-24T18:32:53;22.08;;;8.82;;
42724;SDS011;28369;44.046;23.014;2022-08-24T18:35:19;26.63;;;8.80;;
42724;SDS011;28369;44.046;23.014;2022-08-24T18:37:45;26.05;;;8.82;;
42724;SDS011;28369;44.046;23.014;2022-08-24T18:40:11;21.42;;;9.13;;
42724;SDS011;28369;44.046;23.014;2022-08-24T18:42:38;19.55;;;9.10;;
42724;SDS011;28369;44.046;23.014;2022-08-24T18:45:05;16.17;;;8.52;;
42724;SDS011;28369;44.046;23.014;2022-08-24T18:47:33;31.98;;;9.02;;
42724;SDS011;28369;44.046;23.014;2022-08-24T18:49:58;18.88;;;9.35;;
42724;SDS011;28369;44.046;23.014;2022-08-24T18:52:24;20.15;;;9.02;;
42724;SDS011;28369;44.046;23.014;2022-08-24T18:54:50;20.65;;;9.82;;
42724;SDS011;28369;44.046;23.014;2022-08-24T18:57:17;21.75;;;8.82;;